Аэропорт: Бухта Провидения. Провидения

ICAO: UHMD

METAR:
2020-06-01 01:30:00
UHMD 010130Z 34009MPS CAVOK 17/06 Q1003 RMK QFE751/1002
METAR:
Информация по данной станции не доступна